Time;durP1;ratioP1;P1;durP2;ratioP2;P2;SDS_P1;SDS_P2;PMS_P1;PMS_P2;Temp;Humidity;BMP_temperature;BMP_pressure;BME280_temperature;BME280_humidity;BME280_pressure;Samples;Min_cycle;Max_cycle;Signal;HPM_P1;HPM_P2
2022/05/25 00:01:32;;;;;;;;;;;10.30;99.90;;;;;;5063673;28;19925;-76
2022/05/25 00:04:03;;;;;;;;;;;10.30;99.90;;;;;;5082740;28;19931;-78
2022/05/25 00:06:30;;;;;;;;;;;10.30;99.90;;;;;;5087510;28;20379;-78
2022/05/25 00:08:57;;;;;;;;;;;10.30;99.90;;;;;;5073738;28;19928;-77
2022/05/25 00:11:24;;;;;;;;;;;10.30;99.90;;;;;;5088894;28;19943;-78
2022/05/25 00:13:52;;;;;;;;;;;10.30;99.90;;;;;;5087468;28;19925;-78
2022/05/25 00:16:19;;;;;;;;;;;10.20;99.90;;;;;;5075453;28;19928;-79
2022/05/25 00:21:27;;;;;;;;;;;10.10;99.90;;;;;;5070914;28;20817;-78
2022/05/25 00:23:54;;;;;;;;;;;10.10;99.90;;;;;;5069024;28;19994;-79
2022/05/25 00:26:20;;;;;;;;;;;10.00;99.90;;;;;;5085194;28;19921;-78
2022/05/25 00:28:47;;;;;;;;;;;10.00;99.90;;;;;;5071314;28;19920;-79
2022/05/25 00:31:16;;;;;;;;;;;10.00;99.90;;;;;;5069017;28;20060;-79
2022/05/25 00:33:42;;;;;;;;;;;10.00;99.90;;;;;;5066694;28;19932;-79
2022/05/25 00:36:09;;;;;;;;;;;9.90;99.90;;;;;;5066626;28;19924;-78
2022/05/25 00:38:36;;;;;;;;;;;10.00;99.90;;;;;;5066506;28;19928;-77
2022/05/25 00:41:03;;;;;;;;;;;9.80;99.90;;;;;;5073282;28;19925;-77
2022/05/25 00:43:30;;;;;;;;;;;9.80;99.90;;;;;;5063223;28;20049;-77
2022/05/25 00:45:59;;;;;;;;;;;9.70;99.90;;;;;;5058115;28;19974;-77
2022/05/25 00:48:32;;;;;;;;;;;9.70;99.90;;;;;;5083805;28;19928;-78
2022/05/25 00:51:15;;;;;;;;;;;9.70;99.90;;;;;;5076358;28;19931;-82
2022/05/25 00:53:43;;;;;;;;;;;9.60;99.90;;;;;;5089488;28;19928;-82
2022/05/25 00:56:13;;;;;;;;;;;9.60;99.90;;;;;;5073637;28;19924;-82
2022/05/25 00:58:40;;;;;;;;;;;9.60;99.90;;;;;;5071774;28;19920;-82
2022/05/25 01:01:07;;;;;;;;;;;9.60;99.90;;;;;;5072811;28;19920;-83
2022/05/25 01:03:35;;;;;;;;;;;9.60;99.90;;;;;;5072094;28;19927;-84
2022/05/25 01:06:05;;;;;;;;;;;9.70;99.90;;;;;;5066959;28;19920;-81
2022/05/25 01:08:35;;;;;;;;;;;9.70;99.90;;;;;;5088673;28;19921;-82
2022/05/25 01:11:09;;;;;;;;;;;9.70;99.90;;;;;;5066709;28;19920;-84
2022/05/25 01:13:41;;;;;;;;;;;9.70;99.90;;;;;;5072168;28;19928;-82
2022/05/25 01:16:13;;;;;;;;;;;9.70;99.90;;;;;;5068575;28;19928;-82
2022/05/25 01:18:48;;;;;;;;;;;9.70;99.90;;;;;;5072250;28;19921;-82
2022/05/25 01:21:17;;;;;;;;;;;9.70;99.90;;;;;;5068611;28;19928;-82
2022/05/25 01:23:58;;;;;;;;;;;9.70;99.90;;;;;;5086612;28;19920;-82
2022/05/25 01:26:48;;;;;;;;;;;9.70;99.90;;;;;;5067068;28;19924;-83
2022/05/25 01:29:46;;;;;;;;;;;9.70;99.90;;;;;;5080881;28;19928;-83
2022/05/25 01:32:15;;;;;;;;;;;9.70;99.90;;;;;;4994356;28;19980;-84
2022/05/25 01:34:44;;;;;;;;;;;9.60;99.90;;;;;;5068168;28;19950;-83
2022/05/25 01:37:14;;;;;;;;;;;9.60;99.90;;;;;;5086398;28;20072;-83
2022/05/25 01:39:42;;;;;;;;;;;9.50;99.90;;;;;;5068076;28;19936;-84
2022/05/25 01:42:13;;;;;;;;;;;9.50;99.90;;;;;;5069725;28;20353;-83
2022/05/25 01:44:42;;;;;;;;;;;9.40;99.90;;;;;;5087693;28;19920;-83
2022/05/25 01:47:10;;;;;;;;;;;8.80;99.90;;;;;;5087566;28;19932;-82
2022/05/25 01:49:41;;;;;;;;;;;9.30;99.90;;;;;;5083548;28;19921;-83
2022/05/25 01:52:11;;;;;;;;;;;9.20;99.90;;;;;;5070442;28;19924;-83
2022/05/25 01:54:39;;;;;;;;;;;9.20;99.90;;;;;;5070471;28;19985;-83
2022/05/25 01:57:09;;;;;;;;;;;9.20;99.90;;;;;;5087649;28;19924;-84
2022/05/25 01:59:36;;;;;;;;;;;9.20;99.90;;;;;;5083629;28;19966;-82
2022/05/25 02:04:51;;;;;;;;;;;9.20;99.90;;;;;;5088099;28;19924;-81
2022/05/25 02:07:29;;;;;;;;;;;9.20;99.90;;;;;;5087845;28;19974;-84
2022/05/25 02:10:16;;;;;;;;;;;9.20;99.90;;;;;;5068231;28;19932;-83
2022/05/25 02:12:53;;;;;;;;;;;9.30;99.90;;;;;;5089956;28;19928;-81
2022/05/25 02:15:27;;;;;;;;;;;9.30;99.90;;;;;;5090914;28;19924;-81
2022/05/25 02:18:00;;;;;;;;;;;9.40;99.90;;;;;;5072429;28;19932;-82
2022/05/25 02:20:32;;;;;;;;;;;9.30;99.90;;;;;;5074800;28;19924;-83
2022/05/25 02:23:01;;;;;;;;;;;9.40;99.90;;;;;;5090342;28;19936;-84
2022/05/25 02:25:29;;;;;;;;;;;9.40;99.90;;;;;;5075320;28;19921;-83
2022/05/25 02:28:00;;;;;;;;;;;9.40;99.90;;;;;;5074660;28;21289;-84
2022/05/25 02:30:30;;;;;;;;;;;9.40;99.90;;;;;;5071963;28;19924;-81
2022/05/25 02:32:59;;;;;;;;;;;9.40;99.90;;;;;;5090320;28;19924;-82
2022/05/25 02:35:28;;;;;;;;;;;9.40;99.90;;;;;;5091507;28;19951;-82
2022/05/25 02:37:58;;;;;;;;;;;9.30;99.90;;;;;;5072256;28;19961;-79
2022/05/25 02:40:27;;;;;;;;;;;9.30;99.90;;;;;;5088398;28;19928;-79
2022/05/25 02:42:54;;;;;;;;;;;9.30;99.90;;;;;;5071876;28;19927;-80
2022/05/25 02:45:21;;;;;;;;;;;9.30;99.90;;;;;;5072246;28;20559;-79
2022/05/25 02:47:48;;;;;;;;;;;9.40;99.90;;;;;;5068763;28;19928;-79
2022/05/25 02:50:15;;;;;;;;;;;9.30;99.90;;;;;;5087292;28;19936;-83
2022/05/25 02:52:44;;;;;;;;;;;9.40;99.90;;;;;;5079984;28;19994;-80
2022/05/25 02:55:11;;;;;;;;;;;9.40;99.90;;;;;;5069825;28;19925;-80
2022/05/25 02:57:38;;;;;;;;;;;9.50;99.90;;;;;;5067984;28;19998;-80
2022/05/25 03:00:05;;;;;;;;;;;9.50;99.90;;;;;;5073129;28;20473;-82
2022/05/25 03:02:32;;;;;;;;;;;9.60;99.90;;;;;;5070399;28;19909;-81
2022/05/25 03:04:59;;;;;;;;;;;9.60;99.90;;;;;;5078547;28;19928;-81
2022/05/25 03:07:26;;;;;;;;;;;9.60;99.90;;;;;;5072182;28;19921;-82
2022/05/25 03:09:54;;;;;;;;;;;9.50;99.90;;;;;;5074483;28;19939;-83
2022/05/25 03:12:22;;;;;;;;;;;9.50;99.90;;;;;;5071172;28;19954;-83
2022/05/25 03:14:49;;;;;;;;;;;9.50;99.90;;;;;;5073282;28;19967;-81
2022/05/25 03:17:18;;;;;;;;;;;9.50;99.90;;;;;;5083504;28;20312;-81
2022/05/25 03:19:49;;;;;;;;;;;9.60;99.90;;;;;;5054668;28;19970;-80
2022/05/25 03:22:16;;;;;;;;;;;11.10;99.90;;;;;;5062424;28;20433;-82
2022/05/25 03:24:43;;;;;;;;;;;9.60;99.90;;;;;;5074621;28;19958;-80
2022/05/25 03:27:12;;;;;;;;;;;9.60;99.90;;;;;;5073843;28;20300;-79
2022/05/25 03:29:39;;;;;;;;;;;9.60;99.90;;;;;;5085846;28;20015;-82
2022/05/25 03:32:06;;;;;;;;;;;9.60;99.90;;;;;;5073386;28;20001;-82
2022/05/25 03:34:33;;;;;;;;;;;9.60;99.90;;;;;;5075795;28;19908;-81
2022/05/25 03:37:00;;;;;;;;;;;9.60;99.90;;;;;;5087157;28;19920;-82
2022/05/25 03:39:28;;;;;;;;;;;9.60;99.90;;;;;;5072047;28;19931;-82
2022/05/25 03:41:56;;;;;;;;;;;9.60;99.90;;;;;;5074948;28;20015;-83
2022/05/25 03:44:25;;;;;;;;;;;9.60;99.90;;;;;;5072237;28;19989;-83
2022/05/25 03:46:53;;;;;;;;;;;9.60;99.90;;;;;;5090297;28;19932;-82
2022/05/25 03:49:21;;;;;;;;;;;9.60;99.90;;;;;;5078371;28;19935;-84
2022/05/25 03:51:48;;;;;;;;;;;9.80;99.90;;;;;;5076891;28;19932;-84
2022/05/25 03:54:15;;;;;;;;;;;9.90;99.90;;;;;;5076778;28;20500;-81
2022/05/25 03:56:42;;;;;;;;;;;9.90;99.90;;;;;;5078555;28;19924;-81
2022/05/25 03:59:09;;;;;;;;;;;10.00;99.90;;;;;;5074223;28;19925;-80
2022/05/25 04:01:37;;;;;;;;;;;10.00;99.90;;;;;;5067665;28;20492;-81
2022/05/25 04:04:05;;;;;;;;;;;10.10;99.90;;;;;;5074433;28;19997;-75
2022/05/25 04:06:32;;;;;;;;;;;10.20;99.90;;;;;;5070792;28;19959;-78
2022/05/25 04:08:59;;;;;;;;;;;10.30;99.90;;;;;;5069627;28;19924;-77
2022/05/25 04:11:26;;;;;;;;;;;10.40;99.90;;;;;;5068585;28;19977;-77
2022/05/25 04:13:53;;;;;;;;;;;10.40;99.90;;;;;;5069237;28;20221;-77
2022/05/25 04:16:20;;;;;;;;;;;10.50;99.90;;;;;;5071097;28;19970;-79
2022/05/25 04:18:49;;;;;;;;;;;10.50;99.90;;;;;;5077372;28;20447;-79
2022/05/25 04:21:18;;;;;;;;;;;10.70;99.90;;;;;;5071068;28;19932;-83
2022/05/25 04:23:45;;;;;;;;;;;10.90;99.90;;;;;;5064195;28;19920;-80
2022/05/25 04:26:13;;;;;;;;;;;11.20;99.90;;;;;;5072110;28;19925;-79
2022/05/25 04:28:40;;;;;;;;;;;11.50;99.90;;;;;;5052900;28;19920;-79
2022/05/25 04:31:07;;;;;;;;;;;11.70;99.90;;;;;;5055365;28;19930;-80
2022/05/25 04:33:36;;;;;;;;;;;12.10;99.90;;;;;;5061889;28;20031;-81
2022/05/25 04:36:05;;;;;;;;;;;12.30;99.90;;;;;;5073407;28;19974;-79
2022/05/25 04:38:31;;;;;;;;;;;12.40;99.90;;;;;;5066131;28;19943;-80
2022/05/25 04:40:58;;;;;;;;;;;12.50;99.90;;;;;;5063037;28;19931;-80
2022/05/25 04:43:27;;;;;;;;;;;12.60;99.90;;;;;;5074842;28;19919;-78
2022/05/25 04:45:54;;;;;;;;;;;12.70;99.90;;;;;;5084835;28;20503;-78
2022/05/25 04:48:24;;;;;;;;;;;12.80;99.90;;;;;;5069030;28;21859;-78
2022/05/25 04:50:51;;;;;;;;;;;12.80;99.90;;;;;;5073911;28;19960;-78
2022/05/25 04:53:23;;;;;;;;;;;12.90;99.90;;;;;;5089788;28;19924;-78
2022/05/25 04:58:35;;;;;;;;;;;12.90;99.90;;;;;;5089518;28;19935;-80
2022/05/25 05:01:03;;;;;;;;;;;13.00;99.90;;;;;;5073783;28;19924;-80
2022/05/25 05:03:30;;;;;;;;;;;13.00;99.90;;;;;;5078671;28;19968;-82
2022/05/25 05:05:58;;;;;;;;;;;13.00;99.90;;;;;;5082046;28;20342;-82
2022/05/25 05:08:27;;;;;;;;;;;13.20;99.90;;;;;;5076400;28;20465;-83
2022/05/25 05:10:54;;;;;;;;;;;13.20;99.90;;;;;;5071900;28;19955;-81
2022/05/25 05:13:21;;;;;;;;;;;13.40;99.90;;;;;;5073785;28;20205;-80
2022/05/25 05:15:49;;;;;;;;;;;13.30;99.90;;;;;;5074261;28;19978;-80
2022/05/25 05:18:17;;;;;;;;;;;13.40;99.90;;;;;;5073217;28;19955;-79
2022/05/25 05:21:14;;;;;;;;;;;13.40;99.90;;;;;;5072140;28;19939;-79
2022/05/25 05:23:44;;;;;;;;;;;13.40;99.90;;;;;;5071984;28;19929;-79
2022/05/25 05:26:11;;;;;;;;;;;13.50;99.90;;;;;;5066794;28;19928;-82
2022/05/25 05:28:39;;;;;;;;;;;13.60;99.90;;;;;;5068743;28;20346;-79
2022/05/25 05:31:07;;;;;;;;;;;14.80;99.90;;;;;;5068299;28;19971;-80
2022/05/25 05:33:35;;;;;;;;;;;15.00;99.90;;;;;;5060003;28;20434;-78
2022/05/25 05:36:06;;;;;;;;;;;16.40;99.90;;;;;;5066056;28;20028;-78
2022/05/25 05:38:34;;;;;;;;;;;17.90;99.90;;;;;;5066264;28;19954;-80
2022/05/25 05:41:03;;;;;;;;;;;19.50;99.90;;;;;;5070577;28;19928;-81
2022/05/25 05:43:30;;;;;;;;;;;20.90;99.90;;;;;;5056272;28;19934;-80
2022/05/25 05:45:58;;;;;;;;;;;22.30;99.90;;;;;;5068941;28;19935;-79
2022/05/25 05:48:27;;;;;;;;;;;23.40;99.90;;;;;;5076836;28;19929;-81
2022/05/25 05:50:55;;;;;;;;;;;24.20;99.90;;;;;;5072820;28;20070;-81
2022/05/25 05:53:23;;;;;;;;;;;25.40;99.90;;;;;;5078642;28;20546;-81
2022/05/25 05:55:50;;;;;;;;;;;26.10;99.90;;;;;;5075044;28;19934;-81
2022/05/25 06:01:00;;;;;;;;;;;27.60;99.90;;;;;;5287959;22;19952;-82
2022/05/25 06:03:28;;;;;;;;;;;28.10;99.90;;;;;;5079323;28;19933;-81
2022/05/25 06:05:55;;;;;;;;;;;28.70;99.90;;;;;;5079864;28;19936;-82
2022/05/25 06:08:23;;;;;;;;;;;29.10;99.90;;;;;;5081012;28;20436;-82
2022/05/25 06:10:50;;;;;;;;;;;29.10;99.90;;;;;;5117152;28;19920;-82
2022/05/25 06:13:17;;;;;;;;;;;29.30;99.90;;;;;;5098842;28;19928;-80
2022/05/25 06:21:18;;;;;;;;;;;30.70;99.90;;;;;;5096762;28;20043;-82
2022/05/25 06:23:45;;;;;;;;;;;31.10;99.60;;;;;;5091982;28;19932;-80
2022/05/25 06:26:14;;;;;;;;;;;31.60;98.90;;;;;;5098460;28;19981;-84
2022/05/25 06:31:16;;;;;;;;;;;32.10;95.40;;;;;;5026102;28;20365;-83
2022/05/25 06:33:45;;;;;;;;;;;32.20;93.50;;;;;;5006111;28;19934;-82
2022/05/25 06:36:12;;;;;;;;;;;32.30;92.00;;;;;;5020058;28;20389;-83
2022/05/25 06:38:39;;;;;;;;;;;32.50;92.00;;;;;;5022758;28;19935;-83
2022/05/25 06:41:06;;;;;;;;;;;32.60;90.90;;;;;;5019725;28;20007;-83
2022/05/25 06:43:33;;;;;;;;;;;32.70;89.70;;;;;;5002972;28;19929;-83
2022/05/25 06:46:00;;;;;;;;;;;32.90;88.70;;;;;;5019600;28;20005;-83
2022/05/25 06:48:27;;;;;;;;;;;33.30;87.20;;;;;;5024859;28;19961;-83
2022/05/25 06:50:55;;;;;;;;;;;33.60;85.40;;;;;;5013551;28;20040;-83
2022/05/25 06:53:23;;;;;;;;;;;34.00;84.40;;;;;;5004308;28;19936;-83
2022/05/25 06:55:50;;;;;;;;;;;34.20;80.00;;;;;;5020051;28;19924;-83
2022/05/25 06:58:16;;;;;;;;;;;34.10;79.40;;;;;;5019501;28;19913;-83
2022/05/25 07:00:43;;;;;;;;;;;34.10;78.20;;;;;;5020827;28;19929;-83
2022/05/25 07:03:11;;;;;;;;;;;34.00;75.80;;;;;;5004071;28;19933;-83
2022/05/25 07:05:38;;;;;;;;;;;33.80;79.80;;;;;;5003864;28;19965;-83
2022/05/25 07:08:07;;;;;;;;;;;34.00;77.10;;;;;;5003370;28;19950;-82
2022/05/25 07:10:34;;;;;;;;;;;34.00;74.70;;;;;;5002481;28;19960;-81
2022/05/25 07:13:03;;;;;;;;;;;34.00;72.20;;;;;;5003947;28;19926;-83
2022/05/25 07:15:30;;;;;;;;;;;33.80;70.90;;;;;;5003996;28;20007;-82
2022/05/25 07:17:57;;;;;;;;;;;33.20;70.90;;;;;;5003611;28;20348;-83
2022/05/25 07:20:24;;;;;;;;;;;33.20;70.70;;;;;;5020774;28;19976;-82
2022/05/25 07:22:51;;;;;;;;;;;33.50;72.00;;;;;;5021044;28;19949;-81
2022/05/25 07:25:26;;;;;;;;;;;33.50;69.50;;;;;;5003452;28;19933;-83
2022/05/25 07:27:55;;;;;;;;;;;34.10;71.10;;;;;;5003374;28;19926;-82
2022/05/25 07:30:22;;;;;;;;;;;34.10;71.10;;;;;;5004400;28;19952;-81
2022/05/25 07:32:49;;;;;;;;;;;34.30;68.40;;;;;;5003432;28;19936;-82
2022/05/25 07:35:17;;;;;;;;;;;34.20;67.80;;;;;;5020958;28;20025;-82
2022/05/25 07:37:45;;;;;;;;;;;34.00;67.70;;;;;;5002417;28;19926;-83
2022/05/25 07:40:14;;;;;;;;;;;33.60;67.30;;;;;;5003402;28;20427;-81
2022/05/25 07:42:45;;;;;;;;;;;33.40;67.90;;;;;;5000897;28;20030;-80
2022/05/25 07:45:11;;;;;;;;;;;33.40;67.50;;;;;;4991495;28;19929;-80
2022/05/25 07:47:39;;;;;;;;;;;33.30;66.60;;;;;;5011138;28;20038;-80
2022/05/25 07:50:07;;;;;;;;;;;33.20;67.20;;;;;;5009209;28;19925;-80
2022/05/25 07:52:36;;;;;;;;;;;33.20;67.50;;;;;;5017371;28;20020;-80
2022/05/25 07:55:03;;;;;;;;;;;33.50;67.00;;;;;;5017287;28;19964;-80
2022/05/25 07:57:29;;;;;;;;;;;33.60;66.10;;;;;;5017453;28;19964;-80
2022/05/25 07:59:58;;;;;;;;;;;33.60;64.30;;;;;;4998616;28;19935;-81
2022/05/25 08:07:57;;;;;;;;;;;33.50;63.70;;;;;;5023847;28;19931;-82
2022/05/25 08:10:26;;;;;;;;;;;33.50;63.40;;;;;;5028083;28;19926;-83
2022/05/25 08:12:56;;;;;;;;;;;33.30;62.60;;;;;;5010135;28;19964;-82
2022/05/25 08:15:24;;;;;;;;;;;33.00;62.90;;;;;;5010569;28;19930;-82
2022/05/25 08:17:51;;;;;;;;;;;32.50;61.50;;;;;;5032481;28;19926;-82
2022/05/25 08:20:19;;;;;;;;;;;32.50;62.00;;;;;;5041554;28;19925;-82
2022/05/25 08:22:46;;;;;;;;;;;32.10;62.60;;;;;;5033449;28;19925;-83
2022/05/25 08:25:15;;;;;;;;;;;31.70;62.80;;;;;;5017627;28;19929;-82
2022/05/25 08:27:42;;;;;;;;;;;31.40;63.10;;;;;;5017805;28;19933;-81
2022/05/25 08:30:10;;;;;;;;;;;31.20;63.50;;;;;;5002132;28;19944;-80
2022/05/25 08:32:38;;;;;;;;;;;31.20;63.90;;;;;;5001738;28;19932;-80
2022/05/25 08:35:06;;;;;;;;;;;31.20;64.20;;;;;;5003618;28;19929;-80
2022/05/25 08:37:32;;;;;;;;;;;31.30;63.70;;;;;;5016893;28;19943;-81
2022/05/25 08:39:59;;;;;;;;;;;31.20;63.40;;;;;;5013600;28;19930;-81
2022/05/25 08:42:28;;;;;;;;;;;31.10;64.10;;;;;;5000063;28;20419;-80
2022/05/25 08:44:56;;;;;;;;;;;31.00;63.80;;;;;;4999583;28;19936;-81
2022/05/25 08:47:23;;;;;;;;;;;30.80;64.30;;;;;;5006836;28;19980;-80
2022/05/25 08:49:52;;;;;;;;;;;30.60;64.40;;;;;;5017387;28;19953;-80
2022/05/25 08:52:22;;;;;;;;;;;30.70;63.90;;;;;;5017327;28;20015;-81
2022/05/25 08:54:49;;;;;;;;;;;30.50;63.70;;;;;;5017750;28;20274;-81
2022/05/25 08:57:17;;;;;;;;;;;30.30;63.20;;;;;;5000320;28;19929;-81
2022/05/25 08:59:48;;;;;;;;;;;30.10;64.00;;;;;;5016284;28;19925;-80
2022/05/25 09:02:19;;;;;;;;;;;29.70;64.10;;;;;;5013661;28;19929;-80
2022/05/25 09:04:49;;;;;;;;;;;29.50;65.30;;;;;;5036996;28;19929;-82
2022/05/25 09:07:22;;;;;;;;;;;29.50;65.90;;;;;;5027199;28;20044;-81
2022/05/25 09:09:50;;;;;;;;;;;29.60;65.20;;;;;;5000078;28;20301;-80
2022/05/25 09:12:22;;;;;;;;;;;29.60;65.20;;;;;;5007109;28;20420;-79
2022/05/25 09:14:52;;;;;;;;;;;29.30;65.50;;;;;;5020758;28;19975;-81
2022/05/25 09:17:21;;;;;;;;;;;29.40;64.50;;;;;;5003739;28;19936;-79
2022/05/25 09:19:48;;;;;;;;;;;29.20;64.60;;;;;;5001069;28;19933;-79
2022/05/25 09:22:20;;;;;;;;;;;29.00;65.00;;;;;;5006497;28;20440;-79
2022/05/25 09:24:47;;;;;;;;;;;28.90;64.80;;;;;;5014798;28;20016;-82
2022/05/25 09:27:15;;;;;;;;;;;28.50;64.30;;;;;;5031135;28;19925;-80
2022/05/25 09:29:44;;;;;;;;;;;28.10;65.50;;;;;;5003619;28;19925;-80
2022/05/25 09:32:19;;;;;;;;;;;27.70;65.30;;;;;;5006766;28;19930;-81
2022/05/25 09:34:52;;;;;;;;;;;27.40;66.90;;;;;;5018314;28;19925;-79
2022/05/25 09:37:30;;;;;;;;;;;27.30;67.30;;;;;;4999327;28;20046;-81
2022/05/25 09:40:01;;;;;;;;;;;27.40;67.30;;;;;;5015469;28;19930;-80
2022/05/25 09:42:33;;;;;;;;;;;27.30;66.60;;;;;;5013938;28;20420;-82
2022/05/25 09:45:00;;;;;;;;;;;27.20;67.60;;;;;;5003635;28;19936;-80
2022/05/25 09:47:31;;;;;;;;;;;27.10;67.00;;;;;;5024381;28;19995;-82
2022/05/25 09:49:58;;;;;;;;;;;27.00;67.70;;;;;;5016394;28;19945;-80
2022/05/25 09:52:36;;;;;;;;;;;27.00;67.90;;;;;;5007125;28;19926;-81
2022/05/25 09:55:05;;;;;;;;;;;26.70;67.40;;;;;;5015593;28;20003;-80
2022/05/25 09:57:34;;;;;;;;;;;26.30;66.50;;;;;;5020004;28;19948;-79
2022/05/25 10:00:03;;;;;;;;;;;25.50;65.90;;;;;;5017005;28;19937;-79
2022/05/25 10:02:35;;;;;;;;;;;24.90;67.20;;;;;;5020837;28;19949;-79
2022/05/25 10:05:13;;;;;;;;;;;24.30;68.00;;;;;;4997792;28;19937;-80
2022/05/25 10:07:53;;;;;;;;;;;23.80;69.10;;;;;;5020325;28;19925;-79
2022/05/25 10:10:25;;;;;;;;;;;23.60;69.50;;;;;;5014264;28;19960;-79
2022/05/25 10:12:59;;;;;;;;;;;23.70;70.90;;;;;;4997055;28;19937;-80
2022/05/25 10:15:29;;;;;;;;;;;23.70;71.40;;;;;;5000643;28;20456;-80
2022/05/25 10:17:59;;;;;;;;;;;23.60;70.30;;;;;;5015703;28;20441;-79
2022/05/25 10:20:27;;;;;;;;;;;23.50;70.80;;;;;;5006147;28;19975;-80
2022/05/25 10:23:02;;;;;;;;;;;23.40;71.10;;;;;;4998399;28;19969;-78
2022/05/25 10:25:30;;;;;;;;;;;23.40;71.70;;;;;;5013558;28;19925;-80
2022/05/25 10:27:58;;;;;;;;;;;23.50;70.40;;;;;;5018230;28;19913;-81
2022/05/25 10:38:51;;;;;;;;;;;23.60;71.40;;;;;;5019073;28;20012;-78
2022/05/25 10:41:39;;;;;;;;;;;23.40;71.30;;;;;;5008263;28;20409;-79
2022/05/25 10:44:09;;;;;;;;;;;23.40;71.40;;;;;;4991433;28;20401;-78
2022/05/25 10:46:37;;;;;;;;;;;23.30;71.30;;;;;;5012394;28;19929;-78
2022/05/25 10:49:07;;;;;;;;;;;23.10;71.00;;;;;;5012128;28;19935;-78
2022/05/25 10:51:38;;;;;;;;;;;23.20;71.60;;;;;;4995527;28;19933;-78
2022/05/25 10:56:54;;;;;;;;;;;23.40;71.80;;;;;;4988270;28;19948;-79
2022/05/25 10:59:24;;;;;;;;;;;23.50;72.10;;;;;;4999636;28;20297;-79
2022/05/25 11:01:57;;;;;;;;;;;23.60;71.10;;;;;;5013003;28;20266;-79
2022/05/25 11:04:34;;;;;;;;;;;23.50;70.10;;;;;;5012243;28;19933;-79
2022/05/25 11:07:06;;;;;;;;;;;23.50;70.20;;;;;;4996133;28;19941;-78
2022/05/25 11:09:43;;;;;;;;;;;23.40;71.20;;;;;;4995216;28;19941;-79
2022/05/25 11:12:15;;;;;;;;;;;23.50;71.20;;;;;;5004992;28;19925;-79
2022/05/25 11:14:49;;;;;;;;;;;23.60;71.10;;;;;;4992536;28;19926;-79
2022/05/25 11:17:22;;;;;;;;;;;23.80;71.40;;;;;;5011156;28;19925;-78
2022/05/25 11:19:57;;;;;;;;;;;23.80;70.00;;;;;;4995436;28;20399;-78
2022/05/25 11:22:34;;;;;;;;;;;23.80;70.80;;;;;;5002645;28;19976;-79
2022/05/25 11:25:14;;;;;;;;;;;23.70;70.20;;;;;;5010821;28;19925;-79
2022/05/25 11:27:46;;;;;;;;;;;23.90;70.70;;;;;;5011209;28;19938;-79
2022/05/25 11:30:16;;;;;;;;;;;24.10;70.90;;;;;;5015746;28;19937;-79
2022/05/25 11:32:53;;;;;;;;;;;24.10;70.50;;;;;;5018245;28;20523;-80
2022/05/25 11:35:29;;;;;;;;;;;24.10;70.70;;;;;;5021071;28;19929;-80
2022/05/25 11:38:07;;;;;;;;;;;24.00;69.50;;;;;;5004164;28;19944;-82
2022/05/25 11:40:41;;;;;;;;;;;24.00;70.00;;;;;;5008093;28;19956;-79
2022/05/25 11:43:17;;;;;;;;;;;23.80;70.20;;;;;;4998086;28;19925;-79
2022/05/25 11:45:53;;;;;;;;;;;23.80;70.80;;;;;;4998885;28;20419;-79
2022/05/25 11:48:26;;;;;;;;;;;24.60;72.20;;;;;;5015751;28;19925;-81
2022/05/25 11:51:03;;;;;;;;;;;23.70;70.80;;;;;;4999673;28;19933;-79
2022/05/25 11:53:41;;;;;;;;;;;23.60;70.60;;;;;;5000949;28;19932;-80
2022/05/25 11:56:20;;;;;;;;;;;23.70;69.90;;;;;;4992560;28;19925;-79
2022/05/25 11:58:52;;;;;;;;;;;23.80;69.80;;;;;;5012978;28;20452;-79
2022/05/25 12:01:26;;;;;;;;;;;23.80;70.10;;;;;;5014403;28;20022;-80
2022/05/25 12:04:01;;;;;;;;;;;23.80;70.10;;;;;;5016578;28;19934;-80
2022/05/25 12:06:44;;;;;;;;;;;23.60;68.80;;;;;;5030929;28;19925;-80
2022/05/25 12:09:15;;;;;;;;;;;23.50;69.80;;;;;;5016172;28;19929;-80
2022/05/25 12:11:48;;;;;;;;;;;23.40;69.80;;;;;;5016956;28;19925;-80
2022/05/25 12:14:34;;;;;;;;;;;23.30;69.70;;;;;;5016218;28;19968;-80
2022/05/25 12:17:07;;;;;;;;;;;23.30;70.70;;;;;;5014842;28;19929;-80
2022/05/25 12:19:36;;;;;;;;;;;23.60;70.70;;;;;;4993170;28;20386;-78
2022/05/25 12:22:05;;;;;;;;;;;23.60;71.30;;;;;;4993325;28;19925;-77
2022/05/25 12:24:35;;;;;;;;;;;24.00;71.50;;;;;;4995530;28;19930;-79
2022/05/25 12:27:05;;;;;;;;;;;24.20;70.30;;;;;;5008455;28;19930;-77
2022/05/25 12:29:34;;;;;;;;;;;24.30;69.80;;;;;;4998835;28;19923;-80
2022/05/25 12:32:02;;;;;;;;;;;24.40;70.20;;;;;;5018636;28;20464;-79
2022/05/25 12:34:31;;;;;;;;;;;24.40;69.80;;;;;;5028092;28;19971;-80
2022/05/25 12:36:58;;;;;;;;;;;24.40;69.30;;;;;;5027763;28;20373;-77
2022/05/25 12:39:44;;;;;;;;;;;24.10;68.70;;;;;;5030900;28;19929;-79
2022/05/25 12:42:29;;;;;;;;;;;24.00;69.30;;;;;;5027849;28;20019;-79
2022/05/25 12:50:41;;;;;;;;;;;23.00;68.80;;;;;;5017776;28;19926;-79
2022/05/25 12:53:26;;;;;;;;;;;22.90;69.60;;;;;;5001588;28;20055;-79
2022/05/25 12:55:54;;;;;;;;;;;22.70;69.70;;;;;;5015207;28;19933;-79
2022/05/25 12:58:37;;;;;;;;;;;22.30;69.60;;;;;;5001838;28;19986;-78
2022/05/25 13:01:07;;;;;;;;;;;22.30;70.50;;;;;;5034260;28;19935;-78
2022/05/25 13:03:36;;;;;;;;;;;22.40;71.20;;;;;;5034141;28;19929;-76
2022/05/25 13:06:04;;;;;;;;;;;22.50;71.50;;;;;;5025598;28;19930;-78
2022/05/25 13:09:05;;;;;;;;;;;22.70;71.40;;;;;;4998048;28;19979;-78
2022/05/25 13:11:33;;;;;;;;;;;23.20;71.10;;;;;;4995027;28;19930;-77
2022/05/25 13:14:01;;;;;;;;;;;23.60;69.80;;;;;;4991440;28;19930;-78
2022/05/25 13:16:48;;;;;;;;;;;23.50;69.40;;;;;;4983210;28;19968;-77
2022/05/25 13:19:17;;;;;;;;;;;23.40;69.70;;;;;;4995205;28;20336;-77
2022/05/25 13:21:45;;;;;;;;;;;23.20;69.30;;;;;;5012321;28;19926;-81
2022/05/25 13:24:23;;;;;;;;;;;23.00;69.90;;;;;;4997205;28;19965;-80
2022/05/25 13:27:12;;;;;;;;;;;22.90;69.30;;;;;;5018399;28;20020;-81
2022/05/25 13:29:45;;;;;;;;;;;22.90;69.90;;;;;;5000564;28;19926;-81
2022/05/25 13:32:14;;;;;;;;;;;23.10;70.30;;;;;;5018015;28;19979;-81
2022/05/25 13:34:43;;;;;;;;;;;23.10;69.00;;;;;;5000821;28;19953;-80
2022/05/25 13:37:13;;;;;;;;;;;22.80;68.20;;;;;;5000243;28;19979;-81
2022/05/25 13:39:41;;;;;;;;;;;22.60;68.80;;;;;;5016302;28;19930;-82
2022/05/25 13:42:10;;;;;;;;;;;22.50;69.30;;;;;;5016115;28;20273;-80
2022/05/25 13:44:41;;;;;;;;;;;22.70;69.40;;;;;;4999511;28;19925;-80
2022/05/25 13:47:16;;;;;;;;;;;22.70;69.90;;;;;;5017094;28;19932;-80
2022/05/25 13:49:48;;;;;;;;;;;22.90;69.50;;;;;;5001263;28;19937;-80
2022/05/25 13:52:19;;;;;;;;;;;23.00;69.80;;;;;;5016974;28;19934;-81
2022/05/25 13:54:53;;;;;;;;;;;23.10;70.10;;;;;;5001483;28;19929;-80
2022/05/25 13:57:38;;;;;;;;;;;23.10;68.30;;;;;;5000491;28;19972;-80
2022/05/25 14:00:13;;;;;;;;;;;23.10;68.20;;;;;;5018586;28;19931;-81
2022/05/25 14:02:43;;;;;;;;;;;23.00;68.50;;;;;;5022437;28;19940;-79
2022/05/25 14:05:11;;;;;;;;;;;22.90;68.30;;;;;;5005047;28;19930;-81
2022/05/25 14:07:41;;;;;;;;;;;22.90;68.40;;;;;;5020821;28;19919;-80
2022/05/25 14:13:12;;;;;;;;;;;23.00;68.20;;;;;;5020125;28;19922;-80
2022/05/25 14:15:39;;;;;;;;;;;23.20;68.80;;;;;;5005125;28;19926;-80
2022/05/25 14:18:06;;;;;;;;;;;23.90;68.20;;;;;;5005616;28;19960;-81
2022/05/25 14:20:40;;;;;;;;;;;23.90;68.30;;;;;;5003943;28;19925;-81
2022/05/25 14:23:07;;;;;;;;;;;24.50;67.50;;;;;;5023614;28;19917;-82
2022/05/25 14:25:34;;;;;;;;;;;24.50;68.00;;;;;;5008585;28;19925;-80
2022/05/25 14:28:01;;;;;;;;;;;24.60;66.80;;;;;;5002910;28;20065;-80
2022/05/25 14:30:31;;;;;;;;;;;24.70;67.50;;;;;;5018125;28;19968;-80
2022/05/25 14:33:00;;;;;;;;;;;24.70;67.90;;;;;;5004774;28;19925;-80
2022/05/25 14:35:28;;;;;;;;;;;24.90;68.30;;;;;;5006815;28;19973;-80
2022/05/25 14:37:57;;;;;;;;;;;25.30;67.50;;;;;;5006392;28;20048;-81
2022/05/25 14:40:27;;;;;;;;;;;25.30;68.00;;;;;;5005275;28;19964;-81
2022/05/25 14:42:56;;;;;;;;;;;25.50;67.50;;;;;;5002890;28;19949;-80
2022/05/25 14:45:24;;;;;;;;;;;25.60;66.70;;;;;;5001908;28;19929;-80
2022/05/25 14:47:52;;;;;;;;;;;;;;;;;;5001728;28;19925;-80
2022/05/25 14:50:21;;;;;;;;;;;25.40;65.70;;;;;;5019242;28;20379;-80
2022/05/25 14:52:51;;;;;;;;;;;25.30;66.80;;;;;;5003933;28;20034;-81
2022/05/25 14:55:25;;;;;;;;;;;25.20;66.90;;;;;;5002227;28;19933;-81
2022/05/25 14:57:53;;;;;;;;;;;;;;;;;;5001983;28;19988;-80
2022/05/25 15:00:22;;;;;;;;;;;25.10;66.40;;;;;;5019135;28;20000;-80
2022/05/25 15:02:58;;;;;;;;;;;25.00;66.60;;;;;;5002707;28;19925;-82
2022/05/25 15:05:27;;;;;;;;;;;24.90;66.80;;;;;;5002599;28;19925;-81
2022/05/25 15:07:55;;;;;;;;;;;24.80;66.30;;;;;;5002957;28;19934;-83
2022/05/25 15:10:22;;;;;;;;;;;24.80;66.80;;;;;;5004753;28;20019;-83
2022/05/25 15:12:50;;;;;;;;;;;24.70;67.00;;;;;;5002109;28;19936;-82
2022/05/25 15:18:30;;;;;;;;;;;24.40;67.40;;;;;;5038188;28;19921;-82
2022/05/25 15:20:58;;;;;;;;;;;24.40;67.70;;;;;;5014343;28;19984;-82
2022/05/25 15:23:28;;;;;;;;;;;24.50;68.00;;;;;;5020299;28;19925;-82
2022/05/25 15:25:55;;;;;;;;;;;24.60;68.00;;;;;;5038413;28;20426;-82